createdAt,value
2017-10-05T00:00:01.310Z,11.83
2017-10-05T00:01:01.300Z,11.86
2017-10-05T00:02:01.288Z,11.86
2017-10-05T00:03:01.293Z,11.86
2017-10-05T00:04:01.269Z,11.80
2017-10-05T00:05:01.262Z,11.84
2017-10-05T00:06:01.251Z,11.88
2017-10-05T00:07:01.242Z,11.90
2017-10-05T00:08:01.242Z,11.88
2017-10-05T00:09:01.257Z,11.87
2017-10-05T00:10:01.238Z,11.80
2017-10-05T00:11:01.207Z,11.88
2017-10-05T00:12:01.196Z,11.91
2017-10-05T00:13:01.182Z,11.91
2017-10-05T00:14:01.174Z,11.86
2017-10-05T00:15:01.165Z,11.88
2017-10-05T00:16:01.157Z,11.87
2017-10-05T00:17:01.146Z,11.80
2017-10-05T00:18:01.137Z,11.87
2017-10-05T00:19:01.128Z,11.78
2017-10-05T00:20:01.118Z,11.81
2017-10-05T00:21:01.109Z,11.75
2017-10-05T00:22:01.104Z,11.72
2017-10-05T00:23:01.092Z,11.77
2017-10-05T00:24:01.081Z,11.78
2017-10-05T00:25:01.081Z,11.73
2017-10-05T00:26:01.063Z,11.70
2017-10-05T00:27:01.051Z,11.73
2017-10-05T00:28:01.042Z,11.73
2017-10-05T00:29:01.032Z,11.69
2017-10-05T00:30:01.027Z,11.72
2017-10-05T00:31:01.015Z,11.68
2017-10-05T00:32:01.005Z,11.63
2017-10-05T00:33:01.000Z,11.65
2017-10-05T00:34:00.988Z,11.68
2017-10-05T00:35:00.980Z,11.54
2017-10-05T00:36:00.968Z,11.62
2017-10-05T00:37:00.957Z,11.59
2017-10-05T00:38:00.955Z,11.68
2017-10-05T00:39:00.937Z,11.63
2017-10-05T00:40:00.929Z,11.65
2017-10-05T00:41:00.919Z,11.63
2017-10-05T00:42:00.908Z,11.57
2017-10-05T00:43:00.899Z,11.63
2017-10-05T00:44:00.893Z,11.65
2017-10-05T00:45:00.880Z,11.52
2017-10-05T00:46:00.871Z,11.60
2017-10-05T00:47:00.859Z,11.54
2017-10-05T00:48:00.860Z,11.60
2017-10-05T00:49:00.856Z,11.51
2017-10-05T00:50:00.834Z,11.54
2017-10-05T00:51:00.821Z,11.51
2017-10-05T00:52:00.812Z,11.55
2017-10-05T00:53:00.807Z,11.55
2017-10-05T00:54:00.793Z,11.47
2017-10-05T00:55:00.783Z,11.65
2017-10-05T00:56:00.776Z,11.55
2017-10-05T00:57:00.764Z,11.55
2017-10-05T00:58:00.754Z,11.55
2017-10-05T00:59:00.744Z,11.51
2017-10-05T01:00:00.735Z,11.57
2017-10-05T01:01:00.753Z,11.57
2017-10-05T01:02:00.718Z,11.52
2017-10-05T01:03:00.707Z,11.54
2017-10-05T01:04:00.695Z,11.55
2017-10-05T01:05:00.686Z,11.57
2017-10-05T01:06:00.680Z,11.63
2017-10-05T01:07:00.668Z,11.54
2017-10-05T01:08:00.658Z,11.44
2017-10-05T01:09:00.647Z,11.50
2017-10-05T01:10:00.638Z,11.51
2017-10-05T01:11:00.630Z,11.50
2017-10-05T01:12:00.619Z,11.50
2017-10-05T01:13:00.609Z,11.51
2017-10-05T01:14:00.603Z,11.45
2017-10-05T01:15:00.592Z,11.40
2017-10-05T01:16:00.580Z,11.44
2017-10-05T01:17:00.571Z,11.47
2017-10-05T01:18:00.559Z,11.43
2017-10-05T01:19:00.550Z,11.43
2017-10-05T01:20:00.544Z,11.41
2017-10-05T01:21:00.534Z,11.43
2017-10-05T01:22:00.520Z,11.41
2017-10-05T01:23:00.511Z,11.37
2017-10-05T01:24:00.500Z,11.41
2017-10-05T01:25:00.493Z,11.40
2017-10-05T01:26:00.481Z,11.35
2017-10-05T01:27:00.472Z,11.40
2017-10-05T01:28:00.461Z,11.43
2017-10-05T01:29:00.450Z,11.45
2017-10-05T01:30:00.471Z,11.29
2017-10-05T01:31:00.471Z,11.44
2017-10-05T01:32:00.422Z,11.33
2017-10-05T01:33:00.412Z,11.48
2017-10-05T01:34:00.403Z,11.37
2017-10-05T01:35:00.393Z,11.40
2017-10-05T01:36:00.392Z,11.44
2017-10-05T01:37:00.381Z,11.40
2017-10-05T01:38:00.362Z,11.41
2017-10-05T01:39:00.352Z,11.40
2017-10-05T01:40:00.344Z,11.40
2017-10-05T01:41:00.333Z,11.37
2017-10-05T01:42:00.324Z,11.35
2017-10-05T01:43:00.313Z,11.32
2017-10-05T01:44:00.305Z,11.35
2017-10-05T01:45:00.293Z,11.32
2017-10-05T01:46:00.282Z,11.36
2017-10-05T01:47:00.274Z,11.30
2017-10-05T01:48:00.270Z,11.32
2017-10-05T01:49:00.253Z,11.27
2017-10-05T01:50:00.245Z,11.29
2017-10-05T01:51:00.236Z,11.35
2017-10-05T01:52:00.226Z,11.25
2017-10-05T01:53:00.215Z,11.27
2017-10-05T01:54:00.205Z,11.33
2017-10-05T01:55:00.194Z,11.33
2017-10-05T01:56:00.186Z,11.32
2017-10-05T01:57:00.175Z,11.32
2017-10-05T01:58:00.167Z,11.29
2017-10-05T01:59:00.158Z,11.29
2017-10-05T02:00:00.146Z,11.32
2017-10-05T02:01:00.136Z,11.26
2017-10-05T02:02:00.125Z,11.32
2017-10-05T02:03:00.120Z,11.33
2017-10-05T02:04:00.107Z,11.32
2017-10-05T02:05:00.097Z,11.25
2017-10-05T02:06:00.086Z,11.26
2017-10-05T02:07:00.077Z,11.29
2017-10-05T02:08:00.066Z,11.30
2017-10-05T02:09:00.057Z,11.26
2017-10-05T02:10:00.045Z,11.25
2017-10-05T02:11:00.038Z,11.26
2017-10-05T02:12:00.031Z,11.26
2017-10-05T02:13:00.037Z,11.23
2017-10-05T02:14:00.007Z,11.17
2017-10-05T02:14:59.998Z,11.25
2017-10-05T02:15:59.988Z,11.22
2017-10-05T02:16:59.979Z,11.17
2017-10-05T02:17:59.967Z,11.17
2017-10-05T02:18:59.956Z,11.15
2017-10-05T02:19:59.952Z,11.23
2017-10-05T02:20:59.944Z,11.23
2017-10-05T02:21:59.925Z,11.19
2017-10-05T02:22:59.916Z,11.18
2017-10-05T02:23:59.905Z,11.17
2017-10-05T02:24:59.896Z,11.19
2017-10-05T02:25:59.885Z,11.18
2017-10-05T02:26:59.877Z,11.23
2017-10-05T02:27:59.867Z,11.15
2017-10-05T02:28:59.855Z,11.19
2017-10-05T02:29:59.846Z,11.26
2017-10-05T02:30:59.838Z,11.17
2017-10-05T02:31:59.827Z,11.17
2017-10-05T02:32:59.816Z,11.19
2017-10-05T02:33:59.805Z,11.25
2017-10-05T02:34:59.795Z,11.18
2017-10-05T02:35:59.791Z,11.18
2017-10-05T02:36:59.775Z,11.17
2017-10-05T02:37:59.769Z,11.17
2017-10-05T02:38:59.756Z,11.17
2017-10-05T02:39:59.745Z,11.19
2017-10-05T02:40:59.735Z,11.18
2017-10-05T02:41:59.726Z,11.12
2017-10-05T02:42:59.716Z,11.12
2017-10-05T02:43:59.705Z,11.08
2017-10-05T02:44:59.695Z,11.14
2017-10-05T02:45:59.685Z,11.12
2017-10-05T02:46:59.675Z,11.14
2017-10-05T02:47:59.665Z,11.10
2017-10-05T02:48:59.655Z,11.11
2017-10-05T02:49:59.645Z,11.12
2017-10-05T02:50:59.634Z,11.10
2017-10-05T02:51:59.627Z,11.14
2017-10-05T02:52:59.613Z,11.14
2017-10-05T02:53:59.606Z,11.12
2017-10-05T02:54:59.596Z,11.11
2017-10-05T02:55:59.584Z,11.14
2017-10-05T02:56:59.577Z,11.14
2017-10-05T02:57:59.566Z,11.10
2017-10-05T02:58:59.554Z,11.14
2017-10-05T02:59:59.545Z,11.11
2017-10-05T03:00:59.535Z,11.11
2017-10-05T03:01:59.526Z,11.10
2017-10-05T03:02:59.514Z,11.04
2017-10-05T03:03:59.515Z,11.10
2017-10-05T03:04:59.493Z,11.15
2017-10-05T03:05:59.482Z,11.04
2017-10-05T03:06:59.472Z,11.04
2017-10-05T03:07:59.463Z,11.10
2017-10-05T03:08:59.454Z,11.02
2017-10-05T03:09:59.443Z,11.11
2017-10-05T03:10:59.433Z,11.08
2017-10-05T03:11:59.423Z,11.10
2017-10-05T03:12:59.411Z,11.04
2017-10-05T03:13:59.401Z,11.08
2017-10-05T03:14:59.393Z,11.05
2017-10-05T03:15:59.382Z,10.97
2017-10-05T03:16:59.371Z,11.14
2017-10-05T03:17:59.364Z,11.12
2017-10-05T03:18:59.351Z,11.04
2017-10-05T03:19:59.342Z,11.12
2017-10-05T03:20:59.331Z,11.07
2017-10-05T03:21:59.319Z,11.08
2017-10-05T03:22:59.310Z,11.08
2017-10-05T03:23:59.303Z,11.07
2017-10-05T03:24:59.305Z,11.04
2017-10-05T03:25:59.280Z,11.07
2017-10-05T03:26:59.272Z,11.05
2017-10-05T03:27:59.263Z,10.99
2017-10-05T03:28:59.251Z,11.05
2017-10-05T03:29:59.242Z,11.07
2017-10-05T03:30:59.232Z,10.96
2017-10-05T03:31:59.221Z,11.02
2017-10-05T03:32:59.210Z,11.12
2017-10-05T03:33:59.199Z,11.07
2017-10-05T03:34:59.192Z,10.96
2017-10-05T03:35:59.181Z,11.08
2017-10-05T03:36:59.171Z,11.08
2017-10-05T03:37:59.159Z,10.97
2017-10-05T03:38:59.152Z,11.07
2017-10-05T03:39:59.142Z,11.08
2017-10-05T03:40:59.131Z,11.04
2017-10-05T03:41:59.122Z,11.08
2017-10-05T03:42:59.118Z,11.05
2017-10-05T03:43:59.100Z,11.05
2017-10-05T03:44:59.088Z,11.08
2017-10-05T03:45:59.082Z,10.99
2017-10-05T03:46:59.069Z,11.05
2017-10-05T03:47:59.063Z,11.07
2017-10-05T03:48:59.049Z,11.08
2017-10-05T03:49:59.039Z,11.05
2017-10-05T03:50:59.029Z,11.10
2017-10-05T03:51:59.020Z,11.08
2017-10-05T03:52:59.021Z,11.05
2017-10-05T03:53:58.998Z,11.11
2017-10-05T03:54:58.995Z,11.10
2017-10-05T03:55:58.979Z,11.02
2017-10-05T03:56:58.969Z,10.96
2017-10-05T03:57:58.957Z,11.08
2017-10-05T03:58:58.952Z,11.11
2017-10-05T03:59:58.938Z,11.05
2017-10-05T04:00:58.947Z,11.05
2017-10-05T04:01:58.919Z,11.04
2017-10-05T04:02:58.920Z,10.96
2017-10-05T04:03:58.897Z,11.14
2017-10-05T04:04:58.887Z,11.04
2017-10-05T04:05:58.880Z,11.07
2017-10-05T04:06:58.867Z,11.02
2017-10-05T04:07:58.858Z,11.04
2017-10-05T04:08:58.850Z,11.07
2017-10-05T04:09:58.835Z,11.07
2017-10-05T04:10:58.828Z,11.12
2017-10-05T04:11:58.826Z,11.07
2017-10-05T04:12:58.807Z,11.12
2017-10-05T04:13:58.797Z,11.04
2017-10-05T04:14:58.784Z,11.04
2017-10-05T04:15:58.777Z,11.11
2017-10-05T04:16:58.766Z,11.07
2017-10-05T04:17:58.756Z,11.12
2017-10-05T04:18:58.745Z,11.12
2017-10-05T04:19:58.738Z,11.08
2017-10-05T04:20:58.724Z,11.08
2017-10-05T04:21:58.713Z,11.14
2017-10-05T04:22:58.704Z,11.12
2017-10-05T04:23:58.698Z,11.15
2017-10-05T04:24:58.684Z,11.07
2017-10-05T04:25:58.674Z,11.11
2017-10-05T04:26:58.665Z,11.12
2017-10-05T04:27:58.656Z,11.14
2017-10-05T04:28:58.645Z,11.14
2017-10-05T04:29:58.635Z,11.12
2017-10-05T04:30:58.624Z,11.14
2017-10-05T04:31:58.615Z,11.11
2017-10-05T04:32:58.604Z,11.12
2017-10-05T04:33:58.593Z,11.11
2017-10-05T04:34:58.584Z,11.14
2017-10-05T04:35:58.585Z,11.04
2017-10-05T04:36:58.567Z,11.12
2017-10-05T04:37:58.552Z,11.14
2017-10-05T04:38:58.542Z,11.10
2017-10-05T04:39:58.532Z,11.15
2017-10-05T04:40:58.522Z,11.11
2017-10-05T04:41:58.512Z,11.10
2017-10-05T04:42:58.503Z,11.14
2017-10-05T04:43:58.493Z,11.15
2017-10-05T04:44:58.481Z,11.11
2017-10-05T04:45:58.472Z,11.08
2017-10-05T04:46:58.460Z,11.12
2017-10-05T04:47:58.453Z,11.11
2017-10-05T04:48:58.444Z,11.19
2017-10-05T04:49:58.431Z,11.07
2017-10-05T04:50:58.423Z,11.14
2017-10-05T04:51:58.422Z,11.18
2017-10-05T04:52:58.403Z,11.05
2017-10-05T04:53:58.390Z,11.14
2017-10-05T04:54:58.383Z,11.17
2017-10-05T04:55:58.371Z,11.12
2017-10-05T04:56:58.365Z,11.18
2017-10-05T04:57:58.349Z,11.15
2017-10-05T04:58:58.340Z,11.08
2017-10-05T04:59:58.330Z,11.19
2017-10-05T05:00:58.323Z,11.18
2017-10-05T05:01:58.309Z,11.19
2017-10-05T05:02:58.300Z,11.14
2017-10-05T05:03:58.292Z,11.12
2017-10-05T05:04:58.285Z,11.23
2017-10-05T05:05:58.270Z,11.18
2017-10-05T05:06:58.265Z,11.14
2017-10-05T05:07:58.249Z,11.17
2017-10-05T05:08:58.242Z,11.27
2017-10-05T05:09:58.230Z,11.12
2017-10-05T05:10:58.223Z,11.18
2017-10-05T05:11:58.231Z,11.22
2017-10-05T05:12:58.199Z,11.17
2017-10-05T05:13:58.187Z,11.15
2017-10-05T05:14:58.183Z,11.22
2017-10-05T05:15:58.171Z,11.23
2017-10-05T05:16:58.158Z,11.29
2017-10-05T05:17:58.149Z,11.18
2017-10-05T05:18:58.137Z,11.22
2017-10-05T05:19:58.128Z,11.19
2017-10-05T05:20:58.122Z,11.26
2017-10-05T05:21:58.107Z,11.26
2017-10-05T05:22:58.098Z,11.29
2017-10-05T05:23:58.087Z,11.30
2017-10-05T05:24:58.078Z,11.29
2017-10-05T05:25:58.067Z,11.25
2017-10-05T05:26:58.058Z,11.30
2017-10-05T05:27:58.049Z,11.29
2017-10-05T05:28:58.042Z,11.30
2017-10-05T05:29:58.027Z,11.29
2017-10-05T05:30:58.017Z,11.30
2017-10-05T05:31:58.007Z,11.26
2017-10-05T05:32:57.996Z,11.35
2017-10-05T05:33:57.986Z,11.33
2017-10-05T05:34:57.978Z,11.30
2017-10-05T05:35:57.968Z,11.32
2017-10-05T05:36:57.959Z,11.29
2017-10-05T05:37:57.950Z,11.33
2017-10-05T05:38:57.938Z,11.43
2017-10-05T05:39:57.928Z,11.29
2017-10-05T05:40:57.916Z,11.37
2017-10-05T05:41:57.907Z,11.37
2017-10-05T05:42:57.898Z,11.40
2017-10-05T05:43:57.887Z,11.40
2017-10-05T05:44:57.878Z,11.41
2017-10-05T05:45:57.869Z,11.43
2017-10-05T05:46:57.857Z,11.37
2017-10-05T05:47:57.847Z,11.44
2017-10-05T05:48:57.837Z,11.41
2017-10-05T05:49:57.828Z,11.41
2017-10-05T05:50:57.833Z,11.43
2017-10-05T05:51:57.810Z,11.37
2017-10-05T05:52:57.828Z,11.30
2017-10-05T05:53:57.807Z,11.40
2017-10-05T05:54:57.777Z,11.36
2017-10-05T05:55:57.768Z,11.40
2017-10-05T05:56:57.757Z,11.41
2017-10-05T05:57:57.747Z,11.40
2017-10-05T05:58:57.737Z,11.40
2017-10-05T05:59:57.729Z,11.43
2017-10-05T06:00:57.720Z,11.33
2017-10-05T06:01:57.712Z,11.44
2017-10-05T06:02:57.699Z,11.41
2017-10-05T06:03:57.699Z,11.37
2017-10-05T06:04:57.678Z,11.40
2017-10-05T06:05:57.676Z,11.44
2017-10-05T06:06:57.658Z,11.48
2017-10-05T06:07:57.651Z,11.51
2017-10-05T06:08:57.637Z,11.51
2017-10-05T06:09:57.628Z,11.52
2017-10-05T06:10:57.618Z,11.47
2017-10-05T06:11:57.609Z,11.54
2017-10-05T06:12:57.598Z,11.37
2017-10-05T06:13:57.589Z,11.47
2017-10-05T06:14:57.577Z,11.44
2017-10-05T06:15:57.577Z,11.41
2017-10-05T06:16:57.560Z,11.43
2017-10-05T06:17:57.552Z,11.50
2017-10-05T06:18:57.544Z,11.48
2017-10-05T06:19:57.530Z,11.52
2017-10-05T06:20:57.523Z,11.55
2017-10-05T06:21:57.511Z,11.57
2017-10-05T06:22:57.502Z,11.55
2017-10-05T06:23:57.491Z,11.54
2017-10-05T06:24:57.480Z,11.57
2017-10-05T06:25:57.470Z,11.54
2017-10-05T06:26:57.461Z,11.62
2017-10-05T06:27:57.450Z,11.59
2017-10-05T06:28:57.439Z,11.54
2017-10-05T06:29:57.430Z,11.62
2017-10-05T06:30:57.420Z,11.54
2017-10-05T06:31:57.410Z,11.60
2017-10-05T06:32:57.402Z,11.65
2017-10-05T06:33:57.392Z,11.60
2017-10-05T06:34:57.382Z,11.63
2017-10-05T06:35:57.373Z,11.62
2017-10-05T06:36:57.363Z,11.55
2017-10-05T06:37:57.355Z,11.62
2017-10-05T06:38:57.345Z,11.55
2017-10-05T06:39:57.332Z,11.57
2017-10-05T06:40:57.320Z,11.65
2017-10-05T06:41:57.311Z,11.57
2017-10-05T06:42:57.301Z,11.63
2017-10-05T06:43:57.293Z,11.59
2017-10-05T06:44:57.286Z,11.70
2017-10-05T06:45:57.278Z,11.69
2017-10-05T06:46:57.265Z,11.69
2017-10-05T06:47:57.253Z,11.72
2017-10-05T06:48:57.261Z,11.69
2017-10-05T06:49:57.235Z,11.72
2017-10-05T06:50:57.222Z,11.73
2017-10-05T06:51:57.211Z,11.73
2017-10-05T06:52:57.203Z,11.73
2017-10-05T06:53:57.220Z,11.73
2017-10-05T06:54:57.184Z,11.72
2017-10-05T06:55:57.174Z,11.72
2017-10-05T06:56:57.162Z,11.69
2017-10-05T06:57:57.152Z,11.70
2017-10-05T06:58:57.142Z,11.73
2017-10-05T06:59:57.133Z,11.80
2017-10-05T07:00:57.123Z,11.78
2017-10-05T07:01:57.114Z,11.75
2017-10-05T07:02:57.103Z,11.83
2017-10-05T07:03:57.094Z,11.86
2017-10-05T07:04:57.083Z,11.84
2017-10-05T07:05:57.077Z,11.83
2017-10-05T07:06:57.067Z,11.78
2017-10-05T07:07:57.053Z,11.87
2017-10-05T07:08:57.045Z,11.90
2017-10-05T07:09:57.034Z,11.83
2017-10-05T07:10:57.024Z,11.91
2017-10-05T07:11:57.016Z,11.88
2017-10-05T07:12:57.004Z,11.84
2017-10-05T07:13:56.996Z,11.87
2017-10-05T07:14:56.985Z,11.83
2017-10-05T07:15:56.975Z,11.90
2017-10-05T07:16:56.970Z,11.87
2017-10-05T07:17:56.955Z,11.83
2017-10-05T07:18:56.945Z,11.80
2017-10-05T07:19:56.936Z,11.87
2017-10-05T07:20:56.925Z,11.90
2017-10-05T07:21:56.917Z,11.88
2017-10-05T07:22:56.906Z,11.99
2017-10-05T07:23:56.896Z,11.90
2017-10-05T07:24:56.892Z,11.95
2017-10-05T07:25:56.877Z,12.00
2017-10-05T07:26:56.866Z,11.87
2017-10-05T07:27:56.858Z,11.88
2017-10-05T07:28:56.846Z,12.04
2017-10-05T07:29:56.835Z,12.00
2017-10-05T07:30:56.828Z,12.00
2017-10-05T07:31:56.820Z,12.02
2017-10-05T07:32:56.807Z,12.06
2017-10-05T07:33:56.797Z,12.02
2017-10-05T07:34:56.788Z,12.03
2017-10-05T07:35:56.779Z,12.06
2017-10-05T07:36:56.766Z,12.04
2017-10-05T07:37:56.758Z,12.02
2017-10-05T07:38:56.749Z,12.09
2017-10-05T07:39:56.740Z,12.04
2017-10-05T07:40:56.732Z,12.06
2017-10-05T07:41:56.719Z,12.03
2017-10-05T07:42:56.712Z,12.02
2017-10-05T07:43:56.699Z,12.13
2017-10-05T07:44:56.691Z,12.09
2017-10-05T07:45:56.680Z,12.10
2017-10-05T07:46:56.670Z,12.00
2017-10-05T07:47:56.667Z,12.13
2017-10-05T07:48:56.652Z,12.12
2017-10-05T07:49:56.641Z,12.07
2017-10-05T07:50:56.631Z,12.21
2017-10-05T07:51:56.624Z,12.21
2017-10-05T07:52:56.610Z,12.18
2017-10-05T07:53:56.603Z,12.18
2017-10-05T07:54:56.594Z,12.22
2017-10-05T07:55:56.583Z,12.24
2017-10-05T07:56:56.577Z,12.28
2017-10-05T07:57:56.563Z,12.15
2017-10-05T07:58:56.554Z,12.31
2017-10-05T07:59:56.544Z,12.27
2017-10-05T08:00:56.536Z,12.24
2017-10-05T08:01:56.525Z,12.28
2017-10-05T08:02:56.516Z,12.32
2017-10-05T08:03:56.505Z,12.35
2017-10-05T08:04:56.494Z,12.29
2017-10-05T08:05:56.484Z,12.27
2017-10-05T08:06:56.480Z,12.35
2017-10-05T08:07:56.472Z,12.29
2017-10-05T08:08:56.460Z,12.36
2017-10-05T08:09:56.446Z,12.31
2017-10-05T08:10:56.451Z,12.28
2017-10-05T08:11:56.426Z,12.31
2017-10-05T08:12:56.421Z,12.36
2017-10-05T08:13:56.409Z,12.45
2017-10-05T08:14:56.399Z,12.43
2017-10-05T08:15:56.390Z,12.49
2017-10-05T08:16:56.386Z,12.45
2017-10-05T08:17:56.371Z,12.47
2017-10-05T08:18:56.360Z,12.49
2017-10-05T08:19:56.353Z,12.53
2017-10-05T08:20:56.343Z,12.50
2017-10-05T08:21:56.333Z,12.54
2017-10-05T08:22:56.325Z,12.53
2017-10-05T08:23:56.313Z,12.58
2017-10-05T08:24:56.302Z,12.58
2017-10-05T08:25:56.295Z,12.65
2017-10-05T08:26:56.287Z,12.65
2017-10-05T08:27:56.275Z,12.68
2017-10-05T08:28:56.267Z,12.73
2017-10-05T08:29:56.255Z,12.75
2017-10-05T08:30:56.246Z,12.67
2017-10-05T08:31:56.237Z,12.70
2017-10-05T08:32:56.228Z,12.79
2017-10-05T08:33:56.220Z,12.85
2017-10-05T08:34:56.212Z,12.79
2017-10-05T08:35:56.227Z,12.79
2017-10-05T08:36:56.188Z,12.86
2017-10-05T08:37:56.184Z,12.87
2017-10-05T08:38:56.173Z,12.85
2017-10-05T08:39:56.162Z,12.94
2017-10-05T08:40:56.152Z,13.03
2017-10-05T08:41:56.144Z,13.01
2017-10-05T08:42:56.132Z,13.05
2017-10-05T08:43:56.126Z,13.11
2017-10-05T08:44:56.120Z,13.08
2017-10-05T08:45:56.107Z,13.09
2017-10-05T08:46:56.098Z,13.16
2017-10-05T08:47:56.092Z,13.11
2017-10-05T08:48:56.077Z,13.13
2017-10-05T08:49:56.070Z,13.18
2017-10-05T08:50:56.058Z,13.23
2017-10-05T08:51:56.055Z,13.25
2017-10-05T08:52:56.041Z,13.27
2017-10-05T08:53:56.032Z,13.27
2017-10-05T08:54:56.022Z,13.28
2017-10-05T08:55:56.017Z,13.25
2017-10-05T08:56:56.003Z,13.33
2017-10-05T08:57:55.993Z,13.25
2017-10-05T08:58:55.986Z,13.35
2017-10-05T08:59:55.976Z,13.28
2017-10-05T09:00:55.970Z,13.35
2017-10-05T09:01:55.958Z,13.35
2017-10-05T09:02:55.949Z,13.37
2017-10-05T09:03:55.941Z,13.52
2017-10-05T09:04:55.937Z,13.54
2017-10-05T09:05:55.927Z,13.54
2017-10-05T09:06:55.913Z,13.67
2017-10-05T09:07:55.905Z,13.56
2017-10-05T09:08:55.895Z,13.54
2017-10-05T09:09:55.888Z,13.59
2017-10-05T09:10:55.877Z,13.56
2017-10-05T09:11:55.875Z,13.53
2017-10-05T09:12:55.857Z,13.50
2017-10-05T09:13:55.849Z,13.53
2017-10-05T09:14:55.866Z,13.57
2017-10-05T09:15:55.839Z,13.53
2017-10-05T09:16:55.826Z,13.54
2017-10-05T09:17:55.819Z,13.52
2017-10-05T09:18:55.806Z,13.65
2017-10-05T09:19:55.797Z,13.62
2017-10-05T09:20:55.787Z,13.68
2017-10-05T09:21:55.779Z,13.70
2017-10-05T09:22:55.777Z,13.81
2017-10-05T09:23:55.764Z,13.75
2017-10-05T09:24:55.751Z,13.77
2017-10-05T09:25:55.742Z,13.78
2017-10-05T09:26:55.738Z,13.85
2017-10-05T09:27:55.726Z,13.81
2017-10-05T09:28:55.715Z,13.85
2017-10-05T09:29:55.708Z,13.95
2017-10-05T09:30:55.699Z,13.93
2017-10-05T09:31:55.690Z,13.92
2017-10-05T09:32:55.680Z,13.99
2017-10-05T09:33:55.672Z,13.97
2017-10-05T09:34:55.664Z,13.96
2017-10-05T09:35:55.660Z,14.00
2017-10-05T09:36:55.645Z,13.96
2017-10-05T09:37:55.639Z,14.03
2017-10-05T09:38:55.630Z,13.97
2017-10-05T09:39:55.622Z,14.00
2017-10-05T09:40:55.611Z,13.92
2017-10-05T09:41:55.601Z,13.97
2017-10-05T09:42:55.595Z,14.07
2017-10-05T09:43:55.585Z,14.12
2017-10-05T09:44:55.575Z,14.05
2017-10-05T09:45:55.573Z,14.05
2017-10-05T09:46:55.561Z,14.15
2017-10-05T09:47:55.556Z,14.12
2017-10-05T09:48:55.545Z,14.15
2017-10-05T09:49:55.533Z,14.12
2017-10-05T09:50:55.525Z,14.08
2017-10-05T09:51:55.520Z,14.18
2017-10-05T09:52:55.507Z,14.18
2017-10-05T09:53:55.500Z,14.11
2017-10-05T09:54:55.491Z,14.07
2017-10-05T09:55:55.482Z,14.26
2017-10-05T09:56:55.480Z,14.99
2017-10-05T09:57:55.463Z,15.49
2017-10-05T09:58:55.456Z,15.57
2017-10-05T09:59:55.447Z,15.33
2017-10-05T10:00:55.439Z,15.11
2017-10-05T10:01:55.432Z,15.29
2017-10-05T10:02:55.436Z,15.17
2017-10-05T10:03:55.415Z,15.14
2017-10-05T10:04:55.413Z,15.07
2017-10-05T10:05:55.403Z,15.42
2017-10-05T10:06:55.398Z,15.75
2017-10-05T10:07:55.389Z,15.77
2017-10-05T10:08:55.378Z,15.88
2017-10-05T10:09:55.374Z,16.05
2017-10-05T10:10:55.365Z,15.95
2017-10-05T10:11:55.357Z,15.88
2017-10-05T10:12:55.350Z,16.02
2017-10-05T10:13:55.350Z,15.97
2017-10-05T10:14:55.339Z,15.84
2017-10-05T10:15:55.332Z,15.97
2017-10-05T10:16:55.327Z,15.88
2017-10-05T10:17:55.319Z,16.00
2017-10-05T10:18:55.313Z,16.05
2017-10-05T10:19:55.309Z,15.80
2017-10-05T10:20:55.300Z,15.68
2017-10-05T10:21:55.300Z,15.95
2017-10-05T10:22:55.289Z,16.31
2017-10-05T10:23:55.283Z,16.23
2017-10-05T10:24:55.279Z,16.15
2017-10-05T10:25:55.270Z,16.38
2017-10-05T10:26:55.265Z,16.54
2017-10-05T10:27:55.260Z,16.93
2017-10-05T10:28:55.255Z,16.99
2017-10-05T10:29:55.249Z,17.08
2017-10-05T10:30:55.245Z,17.23
2017-10-05T10:31:55.238Z,16.90
2017-10-05T10:32:55.239Z,16.43
2017-10-05T10:33:55.234Z,16.66
2017-10-05T10:34:55.225Z,16.56
2017-10-05T10:35:55.222Z,16.13
2017-10-05T10:36:55.215Z,15.84
2017-10-05T10:37:55.209Z,15.64
2017-10-05T10:38:55.208Z,15.43
2017-10-05T10:39:55.200Z,15.35
2017-10-05T10:40:55.194Z,15.29
2017-10-05T10:41:55.189Z,15.33
2017-10-05T10:42:55.186Z,15.25
2017-10-05T10:43:55.180Z,15.14
2017-10-05T10:44:55.174Z,15.03
2017-10-05T10:45:55.169Z,15.02
2017-10-05T10:46:55.164Z,15.02
2017-10-05T10:47:55.157Z,15.72
2017-10-05T10:48:55.153Z,16.36
2017-10-05T10:49:55.145Z,16.05
2017-10-05T10:50:55.140Z,15.79
2017-10-05T10:51:55.134Z,15.73
2017-10-05T10:52:55.128Z,15.70
2017-10-05T10:53:55.123Z,16.56
2017-10-05T10:54:55.118Z,16.39
2017-10-05T10:55:55.114Z,16.57
2017-10-05T10:56:55.107Z,16.46
2017-10-05T10:57:55.102Z,16.75
2017-10-05T10:58:55.099Z,16.10
2017-10-05T10:59:55.092Z,15.75
2017-10-05T11:00:55.085Z,15.33
2017-10-05T11:01:55.081Z,15.18
2017-10-05T11:02:55.078Z,15.04
2017-10-05T11:03:55.070Z,15.00
2017-10-05T11:04:55.065Z,14.85
2017-10-05T11:05:55.060Z,14.88
2017-10-05T11:06:55.055Z,14.69
2017-10-05T11:07:55.050Z,15.06
2017-10-05T11:08:55.043Z,15.49
2017-10-05T11:09:55.043Z,15.42
2017-10-05T11:10:55.033Z,15.42
2017-10-05T11:11:55.028Z,15.37
2017-10-05T11:12:55.020Z,15.70
2017-10-05T11:13:55.015Z,15.79
2017-10-05T11:14:55.009Z,15.95
2017-10-05T11:15:55.004Z,16.09
2017-10-05T11:16:54.998Z,16.21
2017-10-05T11:17:54.995Z,16.02
2017-10-05T11:18:54.989Z,16.02
2017-10-05T11:19:54.986Z,15.86
2017-10-05T11:20:54.980Z,15.68
2017-10-05T11:21:54.974Z,15.52
2017-10-05T11:22:54.972Z,15.19
2017-10-05T11:23:54.965Z,15.04
2017-10-05T11:24:54.968Z,14.63
2017-10-05T11:25:54.956Z,14.47
2017-10-05T11:26:54.951Z,14.28
2017-10-05T11:27:54.947Z,14.14
2017-10-05T11:28:54.942Z,14.14
2017-10-05T11:29:54.938Z,14.00
2017-10-05T11:30:54.932Z,14.07
2017-10-05T11:31:54.939Z,13.97
2017-10-05T11:32:54.921Z,13.99
2017-10-05T11:33:54.917Z,13.90
2017-10-05T11:34:54.908Z,13.93
2017-10-05T11:35:54.899Z,14.04
2017-10-05T11:36:54.892Z,14.15
2017-10-05T11:37:54.889Z,14.25
2017-10-05T11:38:54.880Z,14.17
2017-10-05T11:39:54.875Z,14.22
2017-10-05T11:40:54.869Z,14.25
2017-10-05T11:41:54.872Z,14.17
2017-10-05T11:42:54.857Z,14.26
2017-10-05T11:43:54.847Z,14.18
2017-10-05T11:44:54.847Z,14.18
2017-10-05T11:45:54.832Z,14.12
2017-10-05T11:46:54.828Z,14.11
2017-10-05T11:47:54.820Z,14.00
2017-10-05T11:48:54.812Z,13.95
2017-10-05T11:49:54.807Z,14.00
2017-10-05T11:50:54.799Z,13.85
2017-10-05T11:51:54.793Z,13.87
2017-10-05T11:52:54.783Z,13.87
2017-10-05T11:53:54.776Z,13.85
2017-10-05T11:54:54.769Z,13.87
2017-10-05T11:55:54.764Z,13.85
2017-10-05T11:56:54.755Z,13.77
2017-10-05T11:57:54.748Z,13.62
2017-10-05T11:58:54.741Z,13.52
2017-10-05T11:59:54.734Z,13.35
2017-10-05T12:00:54.729Z,13.23
2017-10-05T12:01:54.717Z,13.18
2017-10-05T12:02:54.711Z,13.12
2017-10-05T12:03:54.702Z,13.08
2017-10-05T12:04:54.694Z,13.25
2017-10-05T12:05:54.692Z,13.52
2017-10-05T12:06:54.678Z,13.75
2017-10-05T12:07:54.670Z,13.95
2017-10-05T12:08:54.662Z,14.08
2017-10-05T12:09:54.660Z,14.12
2017-10-05T12:10:54.648Z,14.32
2017-10-05T12:11:54.644Z,14.47
2017-10-05T12:12:54.639Z,14.69
2017-10-05T12:13:54.627Z,15.00
2017-10-05T12:14:54.621Z,14.89
2017-10-05T12:15:54.615Z,14.86
2017-10-05T12:16:54.610Z,14.63
2017-10-05T12:17:54.602Z,14.47
2017-10-05T12:18:54.596Z,14.32
2017-10-05T12:19:54.592Z,14.25
2017-10-05T12:20:54.584Z,14.14
2017-10-05T12:21:54.576Z,14.11
2017-10-05T12:22:54.568Z,14.20
2017-10-05T12:23:54.566Z,14.47
2017-10-05T12:24:54.556Z,14.47
2017-10-05T12:25:54.549Z,14.50
2017-10-05T12:26:54.546Z,14.47
2017-10-05T12:27:54.550Z,14.50
2017-10-05T12:28:54.536Z,14.36
2017-10-05T12:29:54.543Z,14.40
2017-10-05T12:30:54.518Z,14.29
2017-10-05T12:31:54.511Z,14.20
2017-10-05T12:32:54.509Z,14.20
2017-10-05T12:33:54.498Z,14.10
2017-10-05T12:34:54.493Z,13.95
2017-10-05T12:35:54.490Z,13.78
2017-10-05T12:36:54.480Z,13.70
2017-10-05T12:37:54.473Z,13.62
2017-10-05T12:38:54.464Z,13.52
2017-10-05T12:39:54.465Z,13.38
2017-10-05T12:40:54.451Z,13.54
2017-10-05T12:41:54.443Z,13.52
2017-10-05T12:42:54.435Z,13.31
2017-10-05T12:43:54.430Z,13.30
2017-10-05T12:44:54.423Z,13.44
2017-10-05T12:45:54.414Z,13.63
2017-10-05T12:46:54.409Z,13.60
2017-10-05T12:47:54.401Z,13.79
2017-10-05T12:48:54.392Z,13.89
2017-10-05T12:49:54.385Z,13.97
2017-10-05T12:50:54.377Z,14.11
2017-10-05T12:51:54.371Z,14.25